createdAt,value
2023-01-09T04:52:56.924Z,17.45
2023-01-09T04:56:00.196Z,16.85
2023-01-09T04:59:03.770Z,18.33
2023-01-09T05:02:07.052Z,19.40
2023-01-09T05:05:11.797Z,17.65
2023-01-09T05:08:15.074Z,18.12
2023-01-09T05:11:17.925Z,16.12
2023-01-09T05:14:20.831Z,16.77
2023-01-09T05:17:23.969Z,19.25
2023-01-09T05:20:27.281Z,21.10
2023-01-09T05:23:29.881Z,19.42
2023-01-09T05:26:32.879Z,17.80
2023-01-09T05:29:35.510Z,19.37
2023-01-09T05:32:38.597Z,20.17
2023-01-09T05:35:41.111Z,18.33
2023-01-09T05:38:44.086Z,18.77
2023-01-09T05:41:46.999Z,19.45
2023-01-09T05:44:49.861Z,20.33
2023-01-09T05:47:53.134Z,21.00
2023-01-09T05:50:56.094Z,20.62
2023-01-09T05:53:59.400Z,18.77
2023-01-09T05:57:02.363Z,17.67
2023-01-09T06:00:06.003Z,17.65
2023-01-09T06:03:09.362Z,20.65
2023-01-09T06:06:12.432Z,21.27
2023-01-09T06:09:15.144Z,19.95
2023-01-09T06:12:18.189Z,19.83
2023-01-09T06:15:21.072Z,19.27
2023-01-09T06:18:24.084Z,20.60
2023-01-09T06:21:29.273Z,20.25
2023-01-09T06:24:32.142Z,19.55
2023-01-09T06:27:37.683Z,18.60
2023-01-09T06:30:40.723Z,17.83
2023-01-09T06:33:43.349Z,20.75
2023-01-09T06:36:46.564Z,20.05
2023-01-09T06:39:49.342Z,15.48
2023-01-09T06:42:52.291Z,22.17
2023-01-09T06:45:54.915Z,17.02
2023-01-09T06:48:58.037Z,18.85
2023-01-09T06:52:05.601Z,17.10
2023-01-09T06:55:09.280Z,17.67
2023-01-09T06:58:12.382Z,18.75
2023-01-09T07:01:15.511Z,19.30
2023-01-09T07:04:18.416Z,18.10
2023-01-09T07:07:22.601Z,19.17
2023-01-09T07:10:25.311Z,18.95
2023-01-09T07:13:28.251Z,19.52
2023-01-09T07:16:31.017Z,16.80
2023-01-09T07:19:33.975Z,17.52
2023-01-09T07:22:36.699Z,16.83
2023-01-09T07:25:42.009Z,20.42
2023-01-09T07:28:44.738Z,15.65
2023-01-09T07:31:47.849Z,18.70
2023-01-09T07:34:51.601Z,17.65
2023-01-09T07:37:54.575Z,17.05
2023-01-09T07:40:57.424Z,17.75
2023-01-09T07:44:00.664Z,17.92
2023-01-09T07:47:03.312Z,17.92
2023-01-09T07:50:06.643Z,15.70
2023-01-09T07:53:09.349Z,16.30
2023-01-09T07:56:12.399Z,18.50
2023-01-09T07:59:15.041Z,14.98
2023-01-09T08:02:18.374Z,16.37
2023-01-09T08:05:21.689Z,19.00
2023-01-09T08:08:24.702Z,19.37
2023-01-09T08:11:29.790Z,17.50
2023-01-09T08:14:36.088Z,15.70
2023-01-09T08:17:44.316Z,18.23
2023-01-09T08:20:50.659Z,17.42
2023-01-09T08:23:53.622Z,16.10
2023-01-09T08:26:56.351Z,16.10
2023-01-09T08:29:59.334Z,18.05
2023-01-09T08:33:02.316Z,19.37
2023-01-09T08:36:05.690Z,22.73
2023-01-09T08:39:09.345Z,17.77
2023-01-09T08:42:32.198Z,17.65
2023-01-09T08:45:53.690Z,17.15
2023-01-09T08:48:57.185Z,17.92
2023-01-09T08:52:00.410Z,17.17
2023-01-09T08:55:03.474Z,16.17
2023-01-09T08:58:06.252Z,19.42
2023-01-09T09:01:09.357Z,19.52
2023-01-09T09:04:11.926Z,18.77
2023-01-09T09:07:14.811Z,19.12
2023-01-09T09:10:18.192Z,20.35
2023-01-09T09:13:21.877Z,21.33
2023-01-09T09:16:25.969Z,19.25
2023-01-09T09:19:29.091Z,19.80
2023-01-09T09:22:31.749Z,21.83
2023-01-09T09:25:35.029Z,21.02
2023-01-09T09:28:37.691Z,19.25
2023-01-09T09:31:40.741Z,19.10
2023-01-09T09:34:43.534Z,20.35
2023-01-09T09:38:04.790Z,21.08
2023-01-09T09:41:41.417Z,21.73
2023-01-09T09:45:06.498Z,20.37
2023-01-09T09:48:29.771Z,23.30
2023-01-09T09:51:47.826Z,22.35
2023-01-09T09:54:51.707Z,22.45
2023-01-09T09:57:56.463Z,19.67
2023-01-09T10:01:01.770Z,20.00
2023-01-09T10:04:11.478Z,20.70
2023-01-09T10:07:29.822Z,19.17
2023-01-09T10:10:40.516Z,20.88
2023-01-09T10:14:02.884Z,19.87
2023-01-09T10:17:49.613Z,21.85
2023-01-09T10:20:58.758Z,20.62
2023-01-09T10:24:27.634Z,26.33
2023-01-09T10:28:04.437Z,18.62
2023-01-09T10:31:23.902Z,26.62
2023-01-09T10:34:34.112Z,22.10
2023-01-09T10:37:44.546Z,29.12
2023-01-09T10:41:00.694Z,23.83
2023-01-09T10:44:07.392Z,21.58
2023-01-09T10:47:34.477Z,21.15
2023-01-09T10:50:41.919Z,22.25
2023-01-09T10:53:50.352Z,25.23
2023-01-09T10:57:05.270Z,22.37
2023-01-09T11:00:15.557Z,24.00
2023-01-09T11:03:23.364Z,22.60
2023-01-09T11:06:36.947Z,28.65
2023-01-09T11:10:01.613Z,21.20
2023-01-09T11:13:18.935Z,22.67
2023-01-09T11:16:24.012Z,24.92
2023-01-09T11:19:27.693Z,23.60
2023-01-09T11:22:43.126Z,23.55
2023-01-09T11:25:54.093Z,25.90
2023-01-09T11:29:10.907Z,23.30
2023-01-09T11:32:23.332Z,23.95
2023-01-09T11:35:34.649Z,22.62
2023-01-09T11:38:54.018Z,23.15
2023-01-09T11:42:02.904Z,22.17
2023-01-09T11:45:06.098Z,25.35
2023-01-09T11:48:18.132Z,22.67
2023-01-09T11:51:23.830Z,20.08
2023-01-09T11:54:31.507Z,25.42
2023-01-09T11:57:34.701Z,22.80
2023-01-09T12:01:09.820Z,27.95
2023-01-09T12:04:44.495Z,24.73
2023-01-09T12:08:06.050Z,25.40
2023-01-09T12:11:15.949Z,24.73
2023-01-09T12:14:29.592Z,22.90
2023-01-09T12:18:03.745Z,24.05
2023-01-09T12:21:29.113Z,25.65
2023-01-09T12:25:06.911Z,24.23
2023-01-09T12:28:37.143Z,24.33
2023-01-09T12:31:40.108Z,25.92
2023-01-09T12:34:59.283Z,25.70
2023-01-09T12:38:49.860Z,25.08
2023-01-09T12:42:24.046Z,25.80
2023-01-09T12:45:39.110Z,26.70
2023-01-09T12:49:09.609Z,25.20
2023-01-09T12:52:20.556Z,27.42
2023-01-09T12:55:27.323Z,28.12
2023-01-09T12:58:42.015Z,27.10
2023-01-09T13:01:48.687Z,25.42
2023-01-09T13:04:58.000Z,26.62
2023-01-09T13:08:09.308Z,26.30
2023-01-09T13:11:24.546Z,24.95
2023-01-09T13:14:48.068Z,27.92
2023-01-09T13:17:56.359Z,29.65
2023-01-09T13:21:01.184Z,31.67
2023-01-09T13:24:13.589Z,33.47
2023-01-09T13:27:25.509Z,30.50
2023-01-09T13:30:39.873Z,29.52
2023-01-09T13:33:46.622Z,29.80
2023-01-09T13:36:52.482Z,28.62
2023-01-09T13:40:21.563Z,30.35
2023-01-09T13:43:24.460Z,28.87
2023-01-09T13:46:37.398Z,30.27
2023-01-09T13:49:40.520Z,29.37
2023-01-09T13:52:43.944Z,31.02
2023-01-09T13:56:00.008Z,30.00
2023-01-09T13:59:03.066Z,29.85
2023-01-09T14:02:41.274Z,31.23
2023-01-09T14:05:44.129Z,28.60
2023-01-09T14:08:49.361Z,33.17
2023-01-09T14:12:04.867Z,28.12
2023-01-09T14:15:31.027Z,29.27
2023-01-09T14:18:37.970Z,28.33
2023-01-09T14:21:50.259Z,27.37
2023-01-09T14:24:56.300Z,32.42
2023-01-09T14:27:59.107Z,27.55
2023-01-09T14:31:05.789Z,32.72
2023-01-09T14:34:31.849Z,30.45
2023-01-09T14:37:39.439Z,29.52
2023-01-09T14:40:53.736Z,28.05
2023-01-09T14:44:03.455Z,31.95
2023-01-09T14:47:16.511Z,28.08
2023-01-09T14:50:45.003Z,32.20
2023-01-09T14:53:51.846Z,33.92
2023-01-09T14:56:54.826Z,33.88
2023-01-09T15:00:00.531Z,36.33
2023-01-09T15:03:06.909Z,31.85
2023-01-09T15:06:15.260Z,34.42
2023-01-09T15:09:33.390Z,37.25
2023-01-09T15:12:36.087Z,33.00
2023-01-09T15:15:45.624Z,35.70
2023-01-09T15:19:08.920Z,34.20
2023-01-09T15:22:31.013Z,32.05
2023-01-09T15:25:39.390Z,35.25
2023-01-09T15:28:44.126Z,31.98
2023-01-09T15:31:50.158Z,33.85
2023-01-09T15:34:55.287Z,31.73
2023-01-09T15:37:58.369Z,31.27
2023-01-09T15:41:12.049Z,31.17
2023-01-09T15:44:22.860Z,33.03
2023-01-09T15:47:29.378Z,32.95
2023-01-09T15:50:32.085Z,32.65
2023-01-09T15:53:35.154Z,35.47
2023-01-09T15:56:39.384Z,33.42
2023-01-09T15:59:42.290Z,32.80
2023-01-09T16:03:05.068Z,34.72
2023-01-09T16:06:13.352Z,37.38
2023-01-09T16:09:28.393Z,36.60
2023-01-09T16:12:31.694Z,35.33
2023-01-09T16:15:35.111Z,36.60
2023-01-09T16:18:49.931Z,38.00
2023-01-09T16:21:57.322Z,38.08
2023-01-09T16:25:21.695Z,40.00
2023-01-09T16:28:30.806Z,40.35
2023-01-09T16:31:33.940Z,35.85
2023-01-09T16:34:36.746Z,38.47
2023-01-09T16:37:40.171Z,42.33
2023-01-09T16:41:34.718Z,38.17
2023-01-09T16:44:37.625Z,34.65
2023-01-09T16:47:40.253Z,35.88
2023-01-09T16:50:44.683Z,35.17
2023-01-09T16:53:48.029Z,38.72
2023-01-09T16:56:54.308Z,37.90
